createdAt,value
2019-02-24T00:01:02.260Z,102638.50
2019-02-24T00:03:34.022Z,102635.93
2019-02-24T00:06:05.156Z,102634.30
2019-02-24T00:08:36.405Z,102632.33
2019-02-24T00:11:09.732Z,102625.44
2019-02-24T00:13:41.966Z,102629.53
2019-02-24T00:16:13.418Z,102624.05
2019-02-24T00:18:44.758Z,102618.50
2019-02-24T00:21:16.318Z,102613.91
2019-02-24T00:23:47.926Z,102612.09
2019-02-24T00:26:19.225Z,102613.99
2019-02-24T00:28:50.683Z,102613.52
2019-02-24T00:31:21.910Z,102609.64
2019-02-24T00:33:53.359Z,102599.08
2019-02-24T00:36:24.434Z,102599.25
2019-02-24T00:38:55.858Z,102601.62
2019-02-24T00:41:27.204Z,102601.50
2019-02-24T00:43:58.855Z,102597.34
2019-02-24T00:46:30.201Z,102601.79
2019-02-24T00:49:01.655Z,102596.55
2019-02-24T00:51:32.791Z,102597.58
2019-02-24T00:54:05.677Z,102604.52
2019-02-24T00:56:37.127Z,102593.53
2019-02-24T00:59:08.787Z,102594.07
2019-02-24T01:01:41.691Z,102590.27
2019-02-24T01:04:13.012Z,102587.98
2019-02-24T01:06:44.320Z,102586.93
2019-02-24T01:09:15.933Z,102587.13
2019-02-24T01:11:47.270Z,102587.66
2019-02-24T01:14:18.509Z,102600.28
2019-02-24T01:16:49.853Z,102588.53
2019-02-24T01:19:21.307Z,102578.27
2019-02-24T01:21:52.652Z,102584.03
2019-02-24T01:24:24.136Z,102583.33
2019-02-24T01:26:55.450Z,102578.64
2019-02-24T01:29:26.597Z,102582.72
2019-02-24T01:31:58.050Z,102590.91
2019-02-24T01:34:29.290Z,102582.78
2019-02-24T01:37:00.841Z,102585.88
2019-02-24T01:39:32.085Z,102581.95
2019-02-24T01:42:04.048Z,102580.55
2019-02-24T01:44:35.497Z,102577.92
2019-02-24T01:47:06.779Z,102585.53
2019-02-24T01:49:38.298Z,102575.68
2019-02-24T01:52:10.055Z,102574.23
2019-02-24T01:54:41.404Z,102577.72
2019-02-24T01:57:12.753Z,102560.51
2019-02-24T01:59:44.206Z,102563.03
2019-02-24T02:02:15.884Z,102572.67
2019-02-24T02:04:47.308Z,102574.69
2019-02-24T02:07:18.758Z,102575.81
2019-02-24T02:09:49.905Z,102584.45
2019-02-24T02:12:21.247Z,102586.29
2019-02-24T02:14:52.695Z,102580.45
2019-02-24T02:17:24.048Z,102580.66
2019-02-24T02:19:55.498Z,102579.64
2019-02-24T02:22:26.842Z,102586.55
2019-02-24T02:24:58.291Z,102591.62
2019-02-24T02:27:29.540Z,102585.11
2019-02-24T02:30:01.815Z,102582.27
2019-02-24T02:32:33.359Z,102577.08
2019-02-24T02:35:06.140Z,102584.92
2019-02-24T02:37:37.295Z,102582.03
2019-02-24T02:40:08.978Z,102585.30
2019-02-24T02:42:40.490Z,102585.02
2019-02-24T02:45:12.663Z,102582.86
2019-02-24T02:47:43.808Z,102582.86
2019-02-24T02:50:15.257Z,102574.89
2019-02-24T02:52:47.115Z,102585.48
2019-02-24T02:55:18.662Z,102590.80
2019-02-24T02:57:50.119Z,102584.87
2019-02-24T03:00:30.880Z,102582.02
2019-02-24T03:03:02.390Z,102577.09
2019-02-24T03:05:33.689Z,102577.92
2019-02-24T03:08:06.777Z,102580.85
2019-02-24T03:10:38.016Z,102583.45
2019-02-24T03:13:09.770Z,102578.77
2019-02-24T03:15:40.921Z,102574.34
2019-02-24T03:18:12.469Z,102571.59
2019-02-24T03:20:43.714Z,102567.91
2019-02-24T03:23:15.162Z,102568.29
2019-02-24T03:25:46.411Z,102572.81
2019-02-24T03:28:17.881Z,102565.86
2019-02-24T03:30:49.134Z,102567.96
2019-02-24T03:33:20.655Z,102573.55
2019-02-24T03:35:51.694Z,102570.36
2019-02-24T03:38:23.145Z,102567.23
2019-02-24T03:40:54.410Z,102558.41
2019-02-24T03:43:25.637Z,102572.00
2019-02-24T03:45:57.912Z,102562.28
2019-02-24T03:48:29.367Z,102566.73
2019-02-24T03:51:00.710Z,102571.59
2019-02-24T03:53:32.584Z,102570.39
2019-02-24T03:56:03.820Z,102571.80
2019-02-24T03:58:35.260Z,102573.38
2019-02-24T04:01:06.507Z,102570.72
2019-02-24T04:03:38.371Z,102567.31
2019-02-24T04:06:09.724Z,102572.72
2019-02-24T04:08:41.170Z,102574.67
2019-02-24T04:11:12.303Z,102575.63
2019-02-24T04:13:43.764Z,102575.21
2019-02-24T04:16:15.006Z,102571.86
2019-02-24T04:18:46.456Z,102588.97
2019-02-24T04:21:17.694Z,102581.66
2019-02-24T04:23:49.149Z,102583.81
2019-02-24T04:26:20.184Z,102584.39
2019-02-24T04:28:51.329Z,102592.63
2019-02-24T04:31:22.782Z,102595.47
2019-02-24T04:33:54.641Z,102608.25
2019-02-24T04:36:25.993Z,102598.58
2019-02-24T04:38:57.542Z,102600.97
2019-02-24T04:41:28.887Z,102603.05
2019-02-24T04:44:00.751Z,102601.48
2019-02-24T04:46:31.991Z,102605.55
2019-02-24T04:49:03.447Z,102611.31
2019-02-24T04:51:37.656Z,102609.84
2019-02-24T04:54:09.416Z,102624.52
2019-02-24T04:56:40.765Z,102624.67
2019-02-24T04:59:12.217Z,102622.83
2019-02-24T05:01:43.867Z,102625.25
2019-02-24T05:04:15.581Z,102627.28
2019-02-24T05:06:46.773Z,102624.23
2019-02-24T05:09:18.233Z,102634.00
2019-02-24T05:11:49.872Z,102633.40
2019-02-24T05:14:22.968Z,102632.37
2019-02-24T05:16:55.642Z,102635.62
2019-02-24T05:19:27.198Z,102634.05
2019-02-24T05:21:58.545Z,102633.29
2019-02-24T05:24:30.088Z,102630.46
2019-02-24T05:27:01.242Z,102632.27
2019-02-24T05:29:32.584Z,102637.34
2019-02-24T05:32:05.262Z,102640.52
2019-02-24T05:34:36.718Z,102638.83
2019-02-24T05:37:07.863Z,102643.17
2019-02-24T05:39:40.444Z,102643.91
2019-02-24T05:42:11.890Z,102639.27
2019-02-24T05:44:43.231Z,102641.85
2019-02-24T05:47:14.886Z,102639.46
2019-02-24T05:49:46.233Z,102643.75
2019-02-24T05:52:17.788Z,102640.78
2019-02-24T05:54:51.844Z,102646.56
2019-02-24T05:57:23.045Z,102644.92
2019-02-24T05:59:55.574Z,102640.59
2019-02-24T06:02:27.182Z,102640.91
2019-02-24T06:04:58.417Z,102637.73
2019-02-24T06:07:29.777Z,102640.28
2019-02-24T06:10:01.346Z,102640.16
2019-02-24T06:12:33.179Z,102635.44
2019-02-24T06:15:06.121Z,102639.17
2019-02-24T06:17:37.302Z,102655.73
2019-02-24T06:20:08.973Z,102643.23
2019-02-24T06:22:40.660Z,102642.35
2019-02-24T06:25:12.175Z,102645.58
2019-02-24T06:27:43.624Z,102644.45
2019-02-24T06:30:14.857Z,102643.79
2019-02-24T06:32:46.420Z,102647.64
2019-02-24T06:35:17.776Z,102640.13
2019-02-24T06:37:49.358Z,102640.81
2019-02-24T06:40:20.774Z,102641.20
2019-02-24T06:42:52.322Z,102642.36
2019-02-24T06:45:23.867Z,102638.15
2019-02-24T06:47:55.621Z,102635.25
2019-02-24T06:50:35.022Z,102631.95
2019-02-24T06:53:01.627Z,102629.89
2019-02-24T06:55:32.953Z,102627.67
2019-02-24T06:58:04.431Z,102642.97
2019-02-24T07:00:35.947Z,102633.53
2019-02-24T07:03:07.734Z,102631.23
2019-02-24T07:05:38.949Z,102631.94
2019-02-24T07:08:10.400Z,102628.35
2019-02-24T07:10:41.949Z,102624.77
2019-02-24T07:13:13.506Z,102624.58
2019-02-24T07:15:45.263Z,102618.62
2019-02-24T07:18:16.539Z,102623.22
2019-02-24T07:20:48.159Z,102626.87
2019-02-24T07:23:19.817Z,102632.77
2019-02-24T07:25:51.198Z,102623.16
2019-02-24T07:28:22.826Z,102631.36
2019-02-24T07:30:54.376Z,102619.30
2019-02-24T07:33:26.143Z,102615.48
2019-02-24T07:35:57.588Z,102623.75
2019-02-24T07:38:29.030Z,102619.48
2019-02-24T07:41:00.456Z,102613.59
2019-02-24T07:43:31.933Z,102612.02
2019-02-24T07:46:03.383Z,102610.84
2019-02-24T07:48:34.839Z,102612.00
2019-02-24T07:51:06.191Z,102612.47
2019-02-24T07:53:38.140Z,102606.77
2019-02-24T07:56:09.796Z,102609.63
2019-02-24T07:58:42.068Z,102612.39
2019-02-24T08:01:13.522Z,102615.09
2019-02-24T08:03:44.566Z,102610.44
2019-02-24T08:06:16.519Z,102604.23
2019-02-24T08:08:48.172Z,102599.81
2019-02-24T08:11:19.841Z,102599.34
2019-02-24T08:13:51.586Z,102598.86
2019-02-24T08:16:22.232Z,102593.73
2019-02-24T08:18:53.662Z,102590.42
2019-02-24T08:21:24.950Z,102593.55
2019-02-24T08:23:56.569Z,102594.19
2019-02-24T08:26:27.248Z,102591.22
2019-02-24T08:28:59.584Z,102586.08
2019-02-24T08:31:30.891Z,102584.27
2019-02-24T08:34:02.674Z,102586.55
2019-02-24T08:36:34.023Z,102588.64
2019-02-24T08:39:05.072Z,102588.15
2019-02-24T08:41:36.114Z,102588.11
2019-02-24T08:44:07.861Z,102585.42
2019-02-24T08:46:39.308Z,102586.20
2019-02-24T08:49:10.764Z,102590.49
2019-02-24T08:51:42.524Z,102587.72
2019-02-24T08:54:14.323Z,102583.50
2019-02-24T08:56:45.929Z,102584.47
2019-02-24T08:59:17.279Z,102587.72
2019-02-24T09:01:49.051Z,102585.86
2019-02-24T09:04:20.901Z,102579.67
2019-02-24T09:06:53.481Z,102576.66
2019-02-24T09:09:25.128Z,102566.59
2019-02-24T09:11:56.802Z,102569.84
2019-02-24T09:14:28.447Z,102571.45
2019-02-24T09:16:59.204Z,102562.11
2019-02-24T09:19:31.748Z,102564.39
2019-02-24T09:22:03.199Z,102569.03
2019-02-24T09:24:34.753Z,102564.61
2019-02-24T09:27:06.310Z,102560.49
2019-02-24T09:29:37.650Z,102552.92
2019-02-24T09:32:09.119Z,102550.52
2019-02-24T09:34:40.567Z,102553.12
2019-02-24T09:37:12.099Z,102542.20
2019-02-24T09:39:43.557Z,102546.53
2019-02-24T09:42:15.221Z,102544.39
2019-02-24T09:44:45.872Z,102542.27
2019-02-24T09:47:16.887Z,102530.14
2019-02-24T09:49:48.426Z,102527.73
2019-02-24T09:52:19.580Z,102516.71
2019-02-24T09:54:50.513Z,102522.34
2019-02-24T09:57:22.172Z,102524.25
2019-02-24T09:59:53.820Z,102521.75
2019-02-24T10:02:25.826Z,102517.19
2019-02-24T10:04:57.173Z,102514.08
2019-02-24T10:07:28.614Z,102511.10
2019-02-24T10:10:00.355Z,102507.03
2019-02-24T10:12:31.795Z,102508.62
2019-02-24T10:15:03.650Z,102504.83
2019-02-24T10:17:35.203Z,102505.78
2019-02-24T10:20:09.025Z,102497.61
2019-02-24T10:22:40.371Z,102500.18
2019-02-24T10:25:11.604Z,102490.87
2019-02-24T10:27:42.747Z,102492.47
2019-02-24T10:30:15.813Z,102495.48
2019-02-24T10:32:47.049Z,102482.35
2019-02-24T10:35:18.739Z,102486.77
2019-02-24T10:37:50.478Z,102471.35
2019-02-24T10:40:22.074Z,102471.94
2019-02-24T10:42:53.289Z,102468.27
2019-02-24T10:45:24.739Z,102471.84
2019-02-24T10:47:56.192Z,102471.22
2019-02-24T10:50:27.904Z,102476.44
2019-02-24T10:52:59.656Z,102466.19
2019-02-24T10:55:31.294Z,102466.27
2019-02-24T10:58:03.337Z,102459.52
2019-02-24T11:00:34.669Z,102454.97
2019-02-24T11:03:06.360Z,102452.77
2019-02-24T11:05:37.618Z,102449.41
2019-02-24T11:08:09.244Z,102445.52
2019-02-24T11:10:40.317Z,102448.55
2019-02-24T11:13:11.218Z,102457.03
2019-02-24T11:15:43.151Z,102433.59
2019-02-24T11:18:14.309Z,102433.21
2019-02-24T11:20:46.678Z,102444.04
2019-02-24T11:23:17.570Z,102430.95
2019-02-24T11:25:48.959Z,102433.80
2019-02-24T11:28:19.713Z,102436.67
2019-02-24T11:30:51.756Z,102438.03
2019-02-24T11:33:23.106Z,102426.99
2019-02-24T11:35:54.363Z,102430.58
2019-02-24T11:38:25.804Z,102426.89
2019-02-24T11:40:57.511Z,102421.06
2019-02-24T11:43:28.432Z,102425.23
2019-02-24T11:45:59.437Z,102416.21
2019-02-24T11:48:30.817Z,102416.52
2019-02-24T11:51:02.343Z,102430.70
2019-02-24T11:53:33.686Z,102417.09
2019-02-24T11:56:04.927Z,102405.97
2019-02-24T11:58:35.600Z,102403.81
2019-02-24T12:01:06.667Z,102407.24
2019-02-24T12:03:38.264Z,102397.97
2019-02-24T12:06:09.497Z,102388.06
2019-02-24T12:08:40.272Z,102388.33
2019-02-24T12:11:11.685Z,102383.63
2019-02-24T12:13:44.470Z,102377.58
2019-02-24T12:16:15.788Z,102386.69
2019-02-24T12:18:47.674Z,102384.34
2019-02-24T12:21:18.695Z,102379.52
2019-02-24T12:23:50.273Z,102373.50
2019-02-24T12:26:21.735Z,102377.95
2019-02-24T12:28:53.187Z,102378.01
2019-02-24T12:31:24.421Z,102370.05
2019-02-24T12:33:56.901Z,102372.72
2019-02-24T12:36:28.343Z,102367.19
2019-02-24T12:39:00.181Z,102361.30
2019-02-24T12:41:31.294Z,102366.78
2019-02-24T12:44:02.991Z,102357.30
2019-02-24T12:46:33.863Z,102361.85
2019-02-24T12:49:04.874Z,102361.81
2019-02-24T12:51:36.934Z,102365.02
2019-02-24T12:54:09.509Z,102361.02
2019-02-24T12:56:40.964Z,102365.23
2019-02-24T12:59:12.615Z,102363.28
2019-02-24T13:01:44.397Z,102361.05
2019-02-24T13:04:15.721Z,102365.13
2019-02-24T13:06:46.982Z,102361.71
2019-02-24T13:09:19.620Z,102362.91
2019-02-24T13:11:50.790Z,102363.28
2019-02-24T13:14:22.442Z,102363.47
2019-02-24T13:16:53.696Z,102364.47
2019-02-24T13:19:24.956Z,102366.38
2019-02-24T13:21:56.487Z,102361.20
2019-02-24T13:24:27.736Z,102363.73
2019-02-24T13:26:59.332Z,102354.64
2019-02-24T13:29:30.255Z,102357.38
2019-02-24T13:32:02.195Z,102354.14
2019-02-24T13:34:33.651Z,102363.75
2019-02-24T13:37:04.782Z,102361.87
2019-02-24T13:39:36.276Z,102359.05
2019-02-24T13:42:07.895Z,102363.23
2019-02-24T13:44:39.549Z,102355.01
2019-02-24T13:47:11.116Z,102359.26
2019-02-24T13:49:43.085Z,102357.46
2019-02-24T13:52:14.709Z,102357.83
2019-02-24T13:54:46.055Z,102350.61
2019-02-24T13:57:17.614Z,102351.81
2019-02-24T13:59:49.058Z,102360.34
2019-02-24T14:02:23.985Z,102354.51
2019-02-24T14:04:54.422Z,102353.83
2019-02-24T14:07:26.073Z,102347.17
2019-02-24T14:09:58.450Z,102346.05
2019-02-24T14:12:30.096Z,102350.60
2019-02-24T14:15:00.965Z,102346.17
2019-02-24T14:17:32.075Z,102343.06
2019-02-24T14:20:04.364Z,102351.54
2019-02-24T14:22:35.904Z,102354.25
2019-02-24T14:25:10.761Z,102348.34
2019-02-24T14:27:41.972Z,102354.76
2019-02-24T14:30:18.159Z,102354.58
2019-02-24T14:32:49.478Z,102353.03
2019-02-24T14:35:25.423Z,102349.69
2019-02-24T14:37:58.114Z,102345.91
2019-02-24T14:40:29.086Z,102350.88
2019-02-24T14:43:00.405Z,102349.20
2019-02-24T14:45:32.157Z,102346.22
2019-02-24T14:48:03.507Z,102340.94
2019-02-24T14:50:34.278Z,102342.45
2019-02-24T14:53:06.148Z,102343.27
2019-02-24T14:55:39.444Z,102346.50
2019-02-24T14:58:10.792Z,102346.79
2019-02-24T15:00:42.608Z,102336.64
2019-02-24T15:03:15.224Z,102339.05
2019-02-24T15:05:46.834Z,102340.39
2019-02-24T15:08:17.701Z,102344.87
2019-02-24T15:10:48.815Z,102341.03
2019-02-24T15:13:20.053Z,102341.67
2019-02-24T15:15:51.814Z,102339.73
2019-02-24T15:18:23.375Z,102344.47
2019-02-24T15:20:55.022Z,102341.91
2019-02-24T15:23:26.571Z,102349.91
2019-02-24T15:25:57.776Z,102343.50
2019-02-24T15:28:29.512Z,102353.53
2019-02-24T15:31:01.240Z,102342.71
2019-02-24T15:33:32.900Z,102342.73
2019-02-24T15:36:05.105Z,102342.88
2019-02-24T15:38:36.611Z,102339.02
2019-02-24T15:41:08.466Z,102340.21
2019-02-24T15:43:40.533Z,102340.91
2019-02-24T15:46:11.808Z,102341.64
2019-02-24T15:48:43.434Z,102345.34
2019-02-24T15:51:16.842Z,102347.98
2019-02-24T15:53:48.995Z,102348.63
2019-02-24T15:56:20.439Z,102349.56
2019-02-24T15:58:51.213Z,102353.77
2019-02-24T16:01:22.425Z,102362.84
2019-02-24T16:03:53.458Z,102358.56
2019-02-24T16:06:24.405Z,102357.03
2019-02-24T16:08:56.369Z,102354.88
2019-02-24T16:11:28.126Z,102355.95
2019-02-24T16:13:59.639Z,102351.44
2019-02-24T16:16:31.221Z,102346.36
2019-02-24T16:19:02.685Z,102357.03
2019-02-24T16:21:33.814Z,102354.55
2019-02-24T16:24:05.296Z,102359.06
2019-02-24T16:26:36.922Z,102354.00
2019-02-24T16:29:07.688Z,102356.77
2019-02-24T16:31:38.808Z,102358.57
2019-02-24T16:34:10.891Z,102358.63
2019-02-24T16:36:41.800Z,102366.55
2019-02-24T16:39:13.047Z,102353.56
2019-02-24T16:41:44.709Z,102358.80
2019-02-24T16:44:16.703Z,102355.82
2019-02-24T16:46:48.018Z,102357.75
2019-02-24T16:49:19.667Z,102360.47
2019-02-24T16:51:50.437Z,102355.82
2019-02-24T16:54:21.649Z,102353.55
2019-02-24T16:56:52.319Z,102348.98
2019-02-24T16:59:23.521Z,102345.97
2019-02-24T17:01:55.257Z,102347.67
2019-02-24T17:04:27.154Z,102338.07
2019-02-24T17:06:57.906Z,102329.88
2019-02-24T17:09:29.124Z,102332.84
2019-02-24T17:12:00.789Z,102328.70
2019-02-24T17:14:32.123Z,102325.01
2019-02-24T17:17:07.153Z,102318.97
2019-02-24T17:19:40.985Z,102321.68
2019-02-24T17:22:12.519Z,102323.90
2019-02-24T17:24:44.068Z,102322.75
2019-02-24T17:27:15.628Z,102314.33
2019-02-24T17:29:47.385Z,102315.96
2019-02-24T17:32:18.323Z,102311.45
2019-02-24T17:34:49.377Z,102307.77
2019-02-24T17:37:21.337Z,102308.61
2019-02-24T17:39:53.078Z,102304.56
2019-02-24T17:42:25.227Z,102291.77
2019-02-24T17:44:56.496Z,102298.83
2019-02-24T17:47:27.251Z,102294.02
2019-02-24T17:49:58.166Z,102290.26
2019-02-24T17:52:31.276Z,102291.27
2019-02-24T17:55:03.128Z,102288.66
2019-02-24T17:57:34.683Z,102288.16
2019-02-24T18:00:23.123Z,102284.88
2019-02-24T18:02:55.124Z,102277.35
2019-02-24T18:05:26.934Z,102278.00
2019-02-24T18:08:01.208Z,102280.87
2019-02-24T18:10:32.498Z,102283.20
2019-02-24T18:13:03.261Z,102289.11
2019-02-24T18:15:34.484Z,102285.55
2019-02-24T18:18:06.058Z,102293.39
2019-02-24T18:20:37.571Z,102293.28
2019-02-24T18:23:09.334Z,102282.05
2019-02-24T18:25:41.307Z,102294.45
2019-02-24T18:28:13.873Z,102288.28
2019-02-24T18:30:45.431Z,102290.89
2019-02-24T18:33:17.082Z,102288.16
2019-02-24T18:35:48.323Z,102283.63
2019-02-24T18:38:19.982Z,102283.41
2019-02-24T18:40:51.253Z,102282.33
2019-02-24T18:43:22.165Z,102286.09
2019-02-24T18:45:52.891Z,102280.87
2019-02-24T18:48:24.056Z,102284.48
2019-02-24T18:50:55.592Z,102282.91
2019-02-24T18:53:27.276Z,102293.75
2019-02-24T18:56:01.570Z,102286.55
2019-02-24T18:58:33.327Z,102291.11
2019-02-24T19:01:04.297Z,102287.98
2019-02-24T19:03:35.764Z,102293.50
2019-02-24T19:06:07.879Z,102288.86
2019-02-24T19:08:38.704Z,102290.11
2019-02-24T19:11:09.852Z,102287.04
2019-02-24T19:13:41.507Z,102279.86
2019-02-24T19:16:13.265Z,102278.17
2019-02-24T19:18:45.127Z,102278.49
2019-02-24T19:21:15.685Z,102276.52
2019-02-24T19:23:48.225Z,102281.45
2019-02-24T19:26:19.682Z,102278.56
2019-02-24T19:28:50.342Z,102281.25
2019-02-24T19:31:21.480Z,102281.41
2019-02-24T19:33:55.309Z,102278.34
2019-02-24T19:36:26.918Z,102276.97
2019-02-24T19:38:58.396Z,102274.33
2019-02-24T19:41:29.316Z,102273.91
2019-02-24T19:44:00.727Z,102274.30
2019-02-24T19:46:32.333Z,102272.60
2019-02-24T19:49:03.087Z,102277.89
2019-02-24T19:51:34.185Z,102268.89
2019-02-24T19:54:05.730Z,102273.45
2019-02-24T19:56:38.006Z,102267.40
2019-02-24T19:59:09.561Z,102276.03
2019-02-24T20:01:43.878Z,102269.63
2019-02-24T20:04:16.249Z,102267.28
2019-02-24T20:06:47.703Z,102270.08
2019-02-24T20:09:19.415Z,102274.42
2019-02-24T20:11:53.752Z,102274.84
2019-02-24T20:14:25.938Z,102283.36
2019-02-24T20:16:56.600Z,102281.30
2019-02-24T20:19:28.700Z,102285.58
2019-02-24T20:21:59.399Z,102281.66
2019-02-24T20:24:33.105Z,102278.49
2019-02-24T20:27:03.387Z,102275.52
2019-02-24T20:29:34.257Z,102276.97
2019-02-24T20:32:05.278Z,102276.73
2019-02-24T20:34:36.516Z,102272.69
2019-02-24T20:37:07.299Z,102274.27
2019-02-24T20:39:38.385Z,102262.45
2019-02-24T20:42:10.454Z,102269.98
2019-02-24T20:44:42.009Z,102264.91
2019-02-24T20:47:13.565Z,102263.33
2019-02-24T20:49:44.908Z,102258.38
2019-02-24T20:52:17.595Z,102257.64
2019-02-24T20:54:48.827Z,102262.62
2019-02-24T20:57:19.596Z,102256.06
2019-02-24T20:59:50.806Z,102256.95
2019-02-24T21:02:22.740Z,102254.12
2019-02-24T21:04:54.016Z,102252.00
2019-02-24T21:07:26.335Z,102247.98
2019-02-24T21:09:58.276Z,102253.73
2019-02-24T21:12:29.914Z,102253.36
2019-02-24T21:15:01.794Z,102245.46
2019-02-24T21:17:45.409Z,102250.98
2019-02-24T21:20:25.352Z,102247.41
2019-02-24T21:22:56.915Z,102242.23
2019-02-24T21:25:28.554Z,102245.92
2019-02-24T21:28:00.005Z,102251.56
2019-02-24T21:30:31.835Z,102252.20
2019-02-24T21:33:02.938Z,102241.72
2019-02-24T21:35:34.562Z,102245.92
2019-02-24T21:38:05.327Z,102241.23
2019-02-24T21:40:36.552Z,102240.33
2019-02-24T21:43:08.090Z,102236.80
2019-02-24T21:45:39.269Z,102233.61
2019-02-24T21:48:10.992Z,102234.17
2019-02-24T21:50:41.840Z,102236.47
2019-02-24T21:53:13.386Z,102234.95
2019-02-24T21:55:44.938Z,102229.20
2019-02-24T21:58:16.584Z,102226.50
2019-02-24T22:00:47.353Z,102223.43
2019-02-24T22:03:18.759Z,102222.25
2019-02-24T22:05:50.011Z,102222.01
2019-02-24T22:08:21.118Z,102222.37
2019-02-24T22:10:52.307Z,102219.63
2019-02-24T22:13:23.854Z,102214.25
2019-02-24T22:15:55.204Z,102216.78
2019-02-24T22:18:26.981Z,102217.17
2019-02-24T22:20:58.624Z,102209.19
2019-02-24T22:23:29.482Z,102213.59
2019-02-24T22:26:00.497Z,102210.02
2019-02-24T22:28:33.088Z,102208.00
2019-02-24T22:31:04.620Z,102200.73
2019-02-24T22:33:36.277Z,102193.86
2019-02-24T22:36:07.142Z,102202.25
2019-02-24T22:38:38.150Z,102196.95
2019-02-24T22:41:09.811Z,102192.98
2019-02-24T22:43:40.577Z,102197.18
2019-02-24T22:46:11.594Z,102193.14
2019-02-24T22:48:43.465Z,102191.61
2019-02-24T22:51:15.215Z,102186.33
2019-02-24T22:53:48.605Z,102186.20
2019-02-24T22:56:20.147Z,102181.95
2019-02-24T22:58:51.219Z,102181.28
2019-02-24T23:01:23.973Z,102182.28
2019-02-24T23:04:07.619Z,102184.20
2019-02-24T23:06:39.318Z,102181.34
2019-02-24T23:09:12.005Z,102181.28
2019-02-24T23:11:44.020Z,102180.31
2019-02-24T23:14:16.066Z,102176.30
2019-02-24T23:16:47.619Z,102173.70
2019-02-24T23:19:18.384Z,102166.80
2019-02-24T23:21:49.491Z,102158.02
2019-02-24T23:24:21.153Z,102153.95
2019-02-24T23:26:52.705Z,102149.61
2019-02-24T23:29:24.253Z,102143.43
2019-02-24T23:31:55.604Z,102140.67
2019-02-24T23:34:27.774Z,102141.55
2019-02-24T23:36:59.448Z,102145.84
2019-02-24T23:39:30.673Z,102133.29
2019-02-24T23:42:02.119Z,102133.89
2019-02-24T23:44:33.092Z,102130.12
2019-02-24T23:47:03.996Z,102128.43
2019-02-24T23:49:35.549Z,102119.98
2019-02-24T23:52:08.100Z,102118.92
2019-02-24T23:54:41.425Z,102111.03
2019-02-24T23:57:14.092Z,102110.78
2019-02-24T23:59:45.440Z,102113.28
